sensor_id;sensor_type;location;lat;lon;timestamp;temperature;humidity
18876;DHT22;9570;50.854;13.778;2023-02-26T00:00:08;0.40;99.90
18876;DHT22;9570;50.854;13.778;2023-02-26T00:02:37;0.30;99.90
18876;DHT22;9570;50.854;13.778;2023-02-26T00:05:04;0.20;99.90
18876;DHT22;9570;50.854;13.778;2023-02-26T00:07:30;0.10;99.90
18876;DHT22;9570;50.854;13.778;2023-02-26T00:09:55;0.10;99.90
18876;DHT22;9570;50.854;13.778;2023-02-26T00:12:21;0.20;99.90
18876;DHT22;9570;50.854;13.778;2023-02-26T00:14:47;0.20;99.90
18876;DHT22;9570;50.854;13.778;2023-02-26T00:17:41;0.30;99.90
18876;DHT22;9570;50.854;13.778;2023-02-26T00:20:09;-0.10;99.90
18876;DHT22;9570;50.854;13.778;2023-02-26T00:22:36;-0.20;99.90
18876;DHT22;9570;50.854;13.778;2023-02-26T00:25:02;0.00;99.90
18876;DHT22;9570;50.854;13.778;2023-02-26T00:27:28;0.20;99.90
18876;DHT22;9570;50.854;13.778;2023-02-26T00:29:53;0.30;99.90
18876;DHT22;9570;50.854;13.778;2023-02-26T00:32:19;0.20;99.90
18876;DHT22;9570;50.854;13.778;2023-02-26T00:34:45;0.10;99.90
18876;DHT22;9570;50.854;13.778;2023-02-26T00:42:54;0.20;99.90
18876;DHT22;9570;50.854;13.778;2023-02-26T00:45:20;0.20;99.90
18876;DHT22;9570;50.854;13.778;2023-02-26T00:48:27;0.30;99.90
18876;DHT22;9570;50.854;13.778;2023-02-26T00:51:15;0.30;99.90
18876;DHT22;9570;50.854;13.778;2023-02-26T00:53:54;0.20;99.90
18876;DHT22;9570;50.854;13.778;2023-02-26T00:56:22;0.10;99.90
18876;DHT22;9570;50.854;13.778;2023-02-26T00:58:48;0.20;99.90
18876;DHT22;9570;50.854;13.778;2023-02-26T01:01:13;0.30;99.90
18876;DHT22;9570;50.854;13.778;2023-02-26T01:03:39;0.10;99.90
18876;DHT22;9570;50.854;13.778;2023-02-26T01:06:10;0.10;99.90
18876;DHT22;9570;50.854;13.778;2023-02-26T01:08:43;0.20;99.90
18876;DHT22;9570;50.854;13.778;2023-02-26T01:11:12;0.10;99.90
18876;DHT22;9570;50.854;13.778;2023-02-26T01:13:38;-0.20;99.90
18876;DHT22;9570;50.854;13.778;2023-02-26T01:16:10;-0.10;99.90
18876;DHT22;9570;50.854;13.778;2023-02-26T01:18:41;0.00;99.90
18876;DHT22;9570;50.854;13.778;2023-02-26T01:21:13;0.20;99.90
18876;DHT22;9570;50.854;13.778;2023-02-26T01:23:42;0.10;99.90
18876;DHT22;9570;50.854;13.778;2023-02-26T01:26:14;0.20;99.90
18876;DHT22;9570;50.854;13.778;2023-02-26T01:28:43;0.20;99.90
18876;DHT22;9570;50.854;13.778;2023-02-26T01:31:19;0.30;99.90
18876;DHT22;9570;50.854;13.778;2023-02-26T01:33:57;0.20;99.90
18876;DHT22;9570;50.854;13.778;2023-02-26T01:36:28;0.00;99.90
18876;DHT22;9570;50.854;13.778;2023-02-26T01:39:25;0.00;99.90
18876;DHT22;9570;50.854;13.778;2023-02-26T01:42:17;0.10;99.90
18876;DHT22;9570;50.854;13.778;2023-02-26T01:44:47;0.10;99.90
18876;DHT22;9570;50.854;13.778;2023-02-26T01:47:31;0.20;99.90
18876;DHT22;9570;50.854;13.778;2023-02-26T01:50:13;0.00;99.90
18876;DHT22;9570;50.854;13.778;2023-02-26T01:55:25;-0.10;99.90
18876;DHT22;9570;50.854;13.778;2023-02-26T01:57:53;0.10;99.90
18876;DHT22;9570;50.854;13.778;2023-02-26T02:00:20;0.20;99.90
18876;DHT22;9570;50.854;13.778;2023-02-26T02:02:45;0.30;99.90
18876;DHT22;9570;50.854;13.778;2023-02-26T02:05:16;0.20;99.90
18876;DHT22;9570;50.854;13.778;2023-02-26T02:07:42;-0.10;99.90
18876;DHT22;9570;50.854;13.778;2023-02-26T02:10:08;-0.10;99.90
18876;DHT22;9570;50.854;13.778;2023-02-26T02:12:47;0.00;99.90
18876;DHT22;9570;50.854;13.778;2023-02-26T02:15:39;0.10;99.90
18876;DHT22;9570;50.854;13.778;2023-02-26T02:18:09;0.20;99.90
18876;DHT22;9570;50.854;13.778;2023-02-26T02:20:51;0.20;99.90
18876;DHT22;9570;50.854;13.778;2023-02-26T02:23:29;0.00;99.90
18876;DHT22;9570;50.854;13.778;2023-02-26T02:32:13;-0.30;99.90
18876;DHT22;9570;50.854;13.778;2023-02-26T02:34:57;-0.50;99.90
18876;DHT22;9570;50.854;13.778;2023-02-26T02:38:30;-0.60;99.90
18876;DHT22;9570;50.854;13.778;2023-02-26T02:40:33;-0.50;99.90
18876;DHT22;9570;50.854;13.778;2023-02-26T02:43:13;-0.50;99.90
18876;DHT22;9570;50.854;13.778;2023-02-26T02:45:44;-0.60;99.90
18876;DHT22;9570;50.854;13.778;2023-02-26T02:48:17;-0.60;99.90
18876;DHT22;9570;50.854;13.778;2023-02-26T02:51:12;-0.70;99.90
18876;DHT22;9570;50.854;13.778;2023-02-26T02:54:05;-0.60;99.90
18876;DHT22;9570;50.854;13.778;2023-02-26T02:56:33;-0.70;99.90
18876;DHT22;9570;50.854;13.778;2023-02-26T02:59:29;-0.70;99.90
18876;DHT22;9570;50.854;13.778;2023-02-26T03:02:49;-0.70;99.90
18876;DHT22;9570;50.854;13.778;2023-02-26T03:04:46;-0.70;99.90
18876;DHT22;9570;50.854;13.778;2023-02-26T03:07:12;-0.60;99.90
18876;DHT22;9570;50.854;13.778;2023-02-26T03:09:38;-0.70;99.90
18876;DHT22;9570;50.854;13.778;2023-02-26T03:12:04;-0.60;99.90
18876;DHT22;9570;50.854;13.778;2023-02-26T03:14:30;-0.60;99.90
18876;DHT22;9570;50.854;13.778;2023-02-26T03:17:50;-0.60;99.90
18876;DHT22;9570;50.854;13.778;2023-02-26T03:20:12;-0.60;99.90
18876;DHT22;9570;50.854;13.778;2023-02-26T03:23:19;-0.60;99.90
18876;DHT22;9570;50.854;13.778;2023-02-26T03:25:59;-0.60;99.90
18876;DHT22;9570;50.854;13.778;2023-02-26T03:28:33;-0.70;99.90
18876;DHT22;9570;50.854;13.778;2023-02-26T03:33:37;-0.70;99.90
18876;DHT22;9570;50.854;13.778;2023-02-26T03:36:10;-0.80;99.90
18876;DHT22;9570;50.854;13.778;2023-02-26T03:38:54;-0.60;99.90
18876;DHT22;9570;50.854;13.778;2023-02-26T03:41:27;-0.60;99.90
18876;DHT22;9570;50.854;13.778;2023-02-26T03:43:57;-0.60;99.90
18876;DHT22;9570;50.854;13.778;2023-02-26T03:46:33;-0.60;99.90
18876;DHT22;9570;50.854;13.778;2023-02-26T03:49:14;-0.60;99.90
18876;DHT22;9570;50.854;13.778;2023-02-26T03:51:41;-0.60;99.90
18876;DHT22;9570;50.854;13.778;2023-02-26T03:54:27;-0.50;99.90
18876;DHT22;9570;50.854;13.778;2023-02-26T03:56:54;-0.50;99.90
18876;DHT22;9570;50.854;13.778;2023-02-26T03:59:20;-0.60;99.90
18876;DHT22;9570;50.854;13.778;2023-02-26T04:02:11;-0.60;99.90
18876;DHT22;9570;50.854;13.778;2023-02-26T04:04:49;-0.60;99.90
18876;DHT22;9570;50.854;13.778;2023-02-26T04:07:18;-0.50;99.90
18876;DHT22;9570;50.854;13.778;2023-02-26T04:09:47;-0.50;99.90
18876;DHT22;9570;50.854;13.778;2023-02-26T04:12:14;-0.60;99.90
18876;DHT22;9570;50.854;13.778;2023-02-26T04:14:39;-0.50;99.90
18876;DHT22;9570;50.854;13.778;2023-02-26T04:17:05;-0.50;99.90
18876;DHT22;9570;50.854;13.778;2023-02-26T04:19:31;-0.60;99.90
18876;DHT22;9570;50.854;13.778;2023-02-26T04:21:56;-0.60;99.90
18876;DHT22;9570;50.854;13.778;2023-02-26T04:24:22;-0.60;99.90
18876;DHT22;9570;50.854;13.778;2023-02-26T04:26:47;-0.40;99.90
18876;DHT22;9570;50.854;13.778;2023-02-26T04:29:13;-0.40;99.90
18876;DHT22;9570;50.854;13.778;2023-02-26T04:31:39;-0.40;99.90
18876;DHT22;9570;50.854;13.778;2023-02-26T04:34:04;-0.50;99.90
18876;DHT22;9570;50.854;13.778;2023-02-26T04:36:30;-0.60;99.90
18876;DHT22;9570;50.854;13.778;2023-02-26T04:38:56;-0.60;99.90
18876;DHT22;9570;50.854;13.778;2023-02-26T04:41:21;-0.60;99.90
18876;DHT22;9570;50.854;13.778;2023-02-26T04:43:47;-0.60;99.90
18876;DHT22;9570;50.854;13.778;2023-02-26T04:46:12;-0.60;99.90
18876;DHT22;9570;50.854;13.778;2023-02-26T04:48:38;-0.60;99.90
18876;DHT22;9570;50.854;13.778;2023-02-26T04:51:04;-0.60;99.90
18876;DHT22;9570;50.854;13.778;2023-02-26T04:53:29;-0.50;99.90
18876;DHT22;9570;50.854;13.778;2023-02-26T04:55:55;-0.40;99.90
18876;DHT22;9570;50.854;13.778;2023-02-26T04:58:20;-0.30;99.90
18876;DHT22;9570;50.854;13.778;2023-02-26T05:00:50;-0.30;99.90
18876;DHT22;9570;50.854;13.778;2023-02-26T05:03:17;-0.30;99.90
18876;DHT22;9570;50.854;13.778;2023-02-26T05:05:43;-0.30;99.90
18876;DHT22;9570;50.854;13.778;2023-02-26T05:08:09;-0.30;99.90
18876;DHT22;9570;50.854;13.778;2023-02-26T05:10:34;-0.20;99.90
18876;DHT22;9570;50.854;13.778;2023-02-26T05:13:00;-0.30;99.90
18876;DHT22;9570;50.854;13.778;2023-02-26T05:15:25;-0.40;99.90
18876;DHT22;9570;50.854;13.778;2023-02-26T05:17:51;-0.50;99.90
18876;DHT22;9570;50.854;13.778;2023-02-26T05:20:16;-0.50;99.90
18876;DHT22;9570;50.854;13.778;2023-02-26T05:22:42;-0.60;99.90
18876;DHT22;9570;50.854;13.778;2023-02-26T05:25:09;-0.70;99.90
18876;DHT22;9570;50.854;13.778;2023-02-26T05:27:36;-0.70;99.90
18876;DHT22;9570;50.854;13.778;2023-02-26T05:30:02;-0.60;99.90
18876;DHT22;9570;50.854;13.778;2023-02-26T05:32:28;-0.70;99.90
18876;DHT22;9570;50.854;13.778;2023-02-26T05:34:53;-0.70;99.90
18876;DHT22;9570;50.854;13.778;2023-02-26T05:37:18;-0.70;99.90
18876;DHT22;9570;50.854;13.778;2023-02-26T05:39:44;-0.60;99.90
18876;DHT22;9570;50.854;13.778;2023-02-26T05:42:09;-0.60;99.90
18876;DHT22;9570;50.854;13.778;2023-02-26T05:44:35;-0.50;99.90
18876;DHT22;9570;50.854;13.778;2023-02-26T05:47:01;-0.60;99.90
18876;DHT22;9570;50.854;13.778;2023-02-26T05:49:27;-0.60;99.90
18876;DHT22;9570;50.854;13.778;2023-02-26T05:51:53;-0.50;99.90
18876;DHT22;9570;50.854;13.778;2023-02-26T05:54:18;-0.50;99.90
18876;DHT22;9570;50.854;13.778;2023-02-26T05:56:44;-0.60;99.90
18876;DHT22;9570;50.854;13.778;2023-02-26T05:59:09;-0.60;99.90
18876;DHT22;9570;50.854;13.778;2023-02-26T06:01:35;-0.60;99.90
18876;DHT22;9570;50.854;13.778;2023-02-26T06:04:03;-0.60;99.90
18876;DHT22;9570;50.854;13.778;2023-02-26T06:06:28;-0.70;99.90
18876;DHT22;9570;50.854;13.778;2023-02-26T06:08:54;-0.60;99.90
18876;DHT22;9570;50.854;13.778;2023-02-26T06:11:19;-0.60;99.90
18876;DHT22;9570;50.854;13.778;2023-02-26T06:13:45;-0.60;99.90
18876;DHT22;9570;50.854;13.778;2023-02-26T06:16:10;-0.70;99.90
18876;DHT22;9570;50.854;13.778;2023-02-26T06:18:36;-0.70;99.90
18876;DHT22;9570;50.854;13.778;2023-02-26T06:21:01;-0.80;99.90
18876;DHT22;9570;50.854;13.778;2023-02-26T06:23:27;-0.70;99.90
18876;DHT22;9570;50.854;13.778;2023-02-26T06:25:53;-0.70;99.90
18876;DHT22;9570;50.854;13.778;2023-02-26T06:28:19;-0.70;99.90
18876;DHT22;9570;50.854;13.778;2023-02-26T06:30:45;-0.70;99.90
18876;DHT22;9570;50.854;13.778;2023-02-26T06:33:11;-0.80;99.90
18876;DHT22;9570;50.854;13.778;2023-02-26T06:35:37;-0.80;99.90
18876;DHT22;9570;50.854;13.778;2023-02-26T06:38:02;-0.80;99.90
18876;DHT22;9570;50.854;13.778;2023-02-26T06:40:28;-0.80;99.90
18876;DHT22;9570;50.854;13.778;2023-02-26T06:42:55;-0.80;99.90
18876;DHT22;9570;50.854;13.778;2023-02-26T06:45:21;-0.90;99.90
18876;DHT22;9570;50.854;13.778;2023-02-26T06:47:46;-0.70;99.90
18876;DHT22;9570;50.854;13.778;2023-02-26T06:50:12;-0.60;99.90
18876;DHT22;9570;50.854;13.778;2023-02-26T06:52:38;-0.60;99.90
18876;DHT22;9570;50.854;13.778;2023-02-26T06:55:04;-0.70;99.90
18876;DHT22;9570;50.854;13.778;2023-02-26T06:57:29;-0.70;99.90
18876;DHT22;9570;50.854;13.778;2023-02-26T06:59:55;-0.70;99.90
18876;DHT22;9570;50.854;13.778;2023-02-26T07:02:21;-0.70;99.90
18876;DHT22;9570;50.854;13.778;2023-02-26T07:04:47;-0.60;99.90
18876;DHT22;9570;50.854;13.778;2023-02-26T07:07:13;-0.70;99.90
18876;DHT22;9570;50.854;13.778;2023-02-26T07:09:39;-0.80;99.90
18876;DHT22;9570;50.854;13.778;2023-02-26T07:12:05;-0.70;99.90
18876;DHT22;9570;50.854;13.778;2023-02-26T07:14:32;-0.70;99.90
18876;DHT22;9570;50.854;13.778;2023-02-26T07:16:58;-0.70;99.90
18876;DHT22;9570;50.854;13.778;2023-02-26T07:19:24;-0.70;99.90
18876;DHT22;9570;50.854;13.778;2023-02-26T07:21:49;-0.80;99.90
18876;DHT22;9570;50.854;13.778;2023-02-26T07:24:15;-0.70;99.90
18876;DHT22;9570;50.854;13.778;2023-02-26T07:26:40;-0.70;99.90
18876;DHT22;9570;50.854;13.778;2023-02-26T07:29:06;-0.60;99.90
18876;DHT22;9570;50.854;13.778;2023-02-26T07:31:31;-0.60;99.90
18876;DHT22;9570;50.854;13.778;2023-02-26T07:33:57;-0.60;99.90
18876;DHT22;9570;50.854;13.778;2023-02-26T07:36:23;-0.60;99.90
18876;DHT22;9570;50.854;13.778;2023-02-26T07:38:48;-0.60;99.90
18876;DHT22;9570;50.854;13.778;2023-02-26T07:41:14;-0.60;99.90
18876;DHT22;9570;50.854;13.778;2023-02-26T07:43:39;-0.50;99.90
18876;DHT22;9570;50.854;13.778;2023-02-26T07:46:05;-0.50;99.90
18876;DHT22;9570;50.854;13.778;2023-02-26T07:48:31;-0.60;99.90
18876;DHT22;9570;50.854;13.778;2023-02-26T07:50:56;-0.50;99.90
18876;DHT22;9570;50.854;13.778;2023-02-26T07:53:22;-0.60;99.90
18876;DHT22;9570;50.854;13.778;2023-02-26T07:55:48;-0.60;99.90
18876;DHT22;9570;50.854;13.778;2023-02-26T07:58:13;-0.50;99.90
18876;DHT22;9570;50.854;13.778;2023-02-26T08:00:39;-0.50;99.90
18876;DHT22;9570;50.854;13.778;2023-02-26T08:03:04;-0.50;99.90
18876;DHT22;9570;50.854;13.778;2023-02-26T08:05:30;-0.60;99.90
18876;DHT22;9570;50.854;13.778;2023-02-26T08:07:55;-0.50;99.90
18876;DHT22;9570;50.854;13.778;2023-02-26T08:10:21;-0.40;99.90
18876;DHT22;9570;50.854;13.778;2023-02-26T08:12:46;-0.40;99.90
18876;DHT22;9570;50.854;13.778;2023-02-26T08:15:12;-0.50;99.90
18876;DHT22;9570;50.854;13.778;2023-02-26T08:17:39;-0.50;99.90
18876;DHT22;9570;50.854;13.778;2023-02-26T08:20:05;-0.50;99.90
18876;DHT22;9570;50.854;13.778;2023-02-26T08:22:31;-0.50;99.90
18876;DHT22;9570;50.854;13.778;2023-02-26T08:24:56;-0.50;99.90
18876;DHT22;9570;50.854;13.778;2023-02-26T08:27:22;-0.50;99.90
18876;DHT22;9570;50.854;13.778;2023-02-26T08:29:47;-0.50;99.90
18876;DHT22;9570;50.854;13.778;2023-02-26T08:32:15;-0.50;99.90
18876;DHT22;9570;50.854;13.778;2023-02-26T08:34:41;-0.40;99.90
18876;DHT22;9570;50.854;13.778;2023-02-26T08:37:07;-0.40;99.90
18876;DHT22;9570;50.854;13.778;2023-02-26T08:39:36;-0.40;99.90
18876;DHT22;9570;50.854;13.778;2023-02-26T08:42:04;-0.20;99.90
18876;DHT22;9570;50.854;13.778;2023-02-26T08:44:29;-0.20;99.90
18876;DHT22;9570;50.854;13.778;2023-02-26T08:46:55;-0.20;99.90
18876;DHT22;9570;50.854;13.778;2023-02-26T08:49:20;-0.20;99.90
18876;DHT22;9570;50.854;13.778;2023-02-26T08:51:46;-0.30;99.90
18876;DHT22;9570;50.854;13.778;2023-02-26T08:54:11;-0.30;99.90
18876;DHT22;9570;50.854;13.778;2023-02-26T08:56:37;-0.40;99.90
18876;DHT22;9570;50.854;13.778;2023-02-26T08:59:02;-0.40;99.90
18876;DHT22;9570;50.854;13.778;2023-02-26T09:01:28;-0.40;99.90
18876;DHT22;9570;50.854;13.778;2023-02-26T09:03:53;-0.30;99.90
18876;DHT22;9570;50.854;13.778;2023-02-26T09:06:19;-0.40;99.90
18876;DHT22;9570;50.854;13.778;2023-02-26T09:08:44;-0.30;99.90
18876;DHT22;9570;50.854;13.778;2023-02-26T09:11:10;-0.30;99.90
18876;DHT22;9570;50.854;13.778;2023-02-26T09:13:35;-0.20;99.90
18876;DHT22;9570;50.854;13.778;2023-02-26T09:16:01;-0.20;99.90
18876;DHT22;9570;50.854;13.778;2023-02-26T09:18:26;-0.10;99.90
18876;DHT22;9570;50.854;13.778;2023-02-26T09:20:52;-0.10;99.90
18876;DHT22;9570;50.854;13.778;2023-02-26T09:23:17;-0.10;99.90
18876;DHT22;9570;50.854;13.778;2023-02-26T09:25:43;0.00;99.90
18876;DHT22;9570;50.854;13.778;2023-02-26T09:28:08;0.10;99.90
18876;DHT22;9570;50.854;13.778;2023-02-26T09:30:34;0.10;99.90
18876;DHT22;9570;50.854;13.778;2023-02-26T09:32:59;0.20;99.90
18876;DHT22;9570;50.854;13.778;2023-02-26T09:35:25;0.00;99.90
18876;DHT22;9570;50.854;13.778;2023-02-26T09:37:50;-0.10;99.90
18876;DHT22;9570;50.854;13.778;2023-02-26T09:43:27;-0.10;99.90
18876;DHT22;9570;50.854;13.778;2023-02-26T09:46:02;-0.20;99.90
18876;DHT22;9570;50.854;13.778;2023-02-26T09:48:29;-0.30;99.90
18876;DHT22;9570;50.854;13.778;2023-02-26T09:50:57;-0.40;99.90
18876;DHT22;9570;50.854;13.778;2023-02-26T09:53:28;-0.30;99.90
18876;DHT22;9570;50.854;13.778;2023-02-26T09:56:09;-0.30;99.90
18876;DHT22;9570;50.854;13.778;2023-02-26T09:58:38;-0.30;99.90
18876;DHT22;9570;50.854;13.778;2023-02-26T10:01:13;-0.20;99.90
18876;DHT22;9570;50.854;13.778;2023-02-26T10:03:53;-0.10;99.90
18876;DHT22;9570;50.854;13.778;2023-02-26T10:06:28;-0.20;99.90
18876;DHT22;9570;50.854;13.778;2023-02-26T10:12:17;-0.10;99.90
18876;DHT22;9570;50.854;13.778;2023-02-26T10:15:08;0.00;99.90
18876;DHT22;9570;50.854;13.778;2023-02-26T10:26:33;0.00;99.90
18876;DHT22;9570;50.854;13.778;2023-02-26T10:31:58;0.10;99.90
18876;DHT22;9570;50.854;13.778;2023-02-26T10:34:37;0.00;99.90
18876;DHT22;9570;50.854;13.778;2023-02-26T10:37:30;0.10;99.90
18876;DHT22;9570;50.854;13.778;2023-02-26T10:40:15;0.20;99.90
18876;DHT22;9570;50.854;13.778;2023-02-26T10:42:46;0.20;99.90
18876;DHT22;9570;50.854;13.778;2023-02-26T10:45:39;0.20;99.90
18876;DHT22;9570;50.854;13.778;2023-02-26T10:51:23;0.30;99.90
18876;DHT22;9570;50.854;13.778;2023-02-26T10:53:58;0.20;99.90
18876;DHT22;9570;50.854;13.778;2023-02-26T10:56:28;0.30;99.90
18876;DHT22;9570;50.854;13.778;2023-02-26T10:58:55;0.40;99.90
18876;DHT22;9570;50.854;13.778;2023-02-26T11:01:23;0.40;99.90
18876;DHT22;9570;50.854;13.778;2023-02-26T11:03:54;0.30;99.90
18876;DHT22;9570;50.854;13.778;2023-02-26T11:06:26;0.30;99.90
18876;DHT22;9570;50.854;13.778;2023-02-26T11:08:54;0.40;99.90
18876;DHT22;9570;50.854;13.778;2023-02-26T11:11:51;0.30;99.90
18876;DHT22;9570;50.854;13.778;2023-02-26T11:14:17;0.30;99.90
18876;DHT22;9570;50.854;13.778;2023-02-26T11:16:51;0.30;99.90
18876;DHT22;9570;50.854;13.778;2023-02-26T11:19:22;0.40;99.90
18876;DHT22;9570;50.854;13.778;2023-02-26T11:21:50;0.50;99.90
18876;DHT22;9570;50.854;13.778;2023-02-26T11:24:28;0.80;99.90
18876;DHT22;9570;50.854;13.778;2023-02-26T11:26:56;1.00;99.90
18876;DHT22;9570;50.854;13.778;2023-02-26T11:29:24;1.00;99.90
18876;DHT22;9570;50.854;13.778;2023-02-26T11:31:54;1.00;99.90
18876;DHT22;9570;50.854;13.778;2023-02-26T11:34:23;0.90;99.90
18876;DHT22;9570;50.854;13.778;2023-02-26T11:36:50;0.90;99.90
18876;DHT22;9570;50.854;13.778;2023-02-26T11:39:24;0.90;99.90
18876;DHT22;9570;50.854;13.778;2023-02-26T11:41:52;0.90;99.90
18876;DHT22;9570;50.854;13.778;2023-02-26T11:46:54;0.80;99.90
18876;DHT22;9570;50.854;13.778;2023-02-26T11:49:23;0.90;99.90
18876;DHT22;9570;50.854;13.778;2023-02-26T11:52:04;1.10;99.90
18876;DHT22;9570;50.854;13.778;2023-02-26T11:54:34;1.10;99.90
18876;DHT22;9570;50.854;13.778;2023-02-26T11:57:01;1.10;99.90
18876;DHT22;9570;50.854;13.778;2023-02-26T11:59:30;1.00;99.90
18876;DHT22;9570;50.854;13.778;2023-02-26T12:02:01;1.00;99.90
18876;DHT22;9570;50.854;13.778;2023-02-26T12:04:27;1.10;99.90
18876;DHT22;9570;50.854;13.778;2023-02-26T12:06:54;1.20;99.90
18876;DHT22;9570;50.854;13.778;2023-02-26T12:09:20;1.20;99.90
18876;DHT22;9570;50.854;13.778;2023-02-26T12:18:01;1.00;99.90
18876;DHT22;9570;50.854;13.778;2023-02-26T12:24:06;1.10;99.90
18876;DHT22;9570;50.854;13.778;2023-02-26T12:26:46;1.10;99.90
18876;DHT22;9570;50.854;13.778;2023-02-26T12:29:40;1.20;99.90
18876;DHT22;9570;50.854;13.778;2023-02-26T12:32:21;1.30;99.90
18876;DHT22;9570;50.854;13.778;2023-02-26T12:35:13;1.30;99.90
18876;DHT22;9570;50.854;13.778;2023-02-26T12:40:50;1.50;99.90
18876;DHT22;9570;50.854;13.778;2023-02-26T12:43:32;1.50;99.90
18876;DHT22;9570;50.854;13.778;2023-02-26T12:46:33;1.50;99.90
18876;DHT22;9570;50.854;13.778;2023-02-26T12:52:02;1.30;99.90
18876;DHT22;9570;50.854;13.778;2023-02-26T12:57:13;1.30;99.90
18876;DHT22;9570;50.854;13.778;2023-02-26T13:00:15;1.50;99.90
18876;DHT22;9570;50.854;13.778;2023-02-26T13:06:17;1.40;99.90
18876;DHT22;9570;50.854;13.778;2023-02-26T13:09:12;1.40;99.90
18876;DHT22;9570;50.854;13.778;2023-02-26T13:11:59;1.40;99.90
18876;DHT22;9570;50.854;13.778;2023-02-26T13:14:52;1.50;99.90
18876;DHT22;9570;50.854;13.778;2023-02-26T13:19:50;1.50;99.90
18876;DHT22;9570;50.854;13.778;2023-02-26T13:22:36;1.50;99.90
18876;DHT22;9570;50.854;13.778;2023-02-26T13:25:20;1.40;99.90
18876;DHT22;9570;50.854;13.778;2023-02-26T13:27:49;1.40;99.90
18876;DHT22;9570;50.854;13.778;2023-02-26T13:30:24;1.30;99.90
18876;DHT22;9570;50.854;13.778;2023-02-26T13:32:52;1.40;99.90
18876;DHT22;9570;50.854;13.778;2023-02-26T13:35:21;1.30;99.90
18876;DHT22;9570;50.854;13.778;2023-02-26T13:37:52;1.40;99.90
18876;DHT22;9570;50.854;13.778;2023-02-26T13:43:45;1.20;99.90
18876;DHT22;9570;50.854;13.778;2023-02-26T13:46:35;1.20;99.90
18876;DHT22;9570;50.854;13.778;2023-02-26T13:49:29;1.30;99.90
18876;DHT22;9570;50.854;13.778;2023-02-26T13:51:56;1.30;99.90
18876;DHT22;9570;50.854;13.778;2023-02-26T13:54:44;1.30;99.90
18876;DHT22;9570;50.854;13.778;2023-02-26T13:57:42;1.50;99.90
18876;DHT22;9570;50.854;13.778;2023-02-26T14:00:26;1.60;99.90
18876;DHT22;9570;50.854;13.778;2023-02-26T14:02:55;1.50;99.90
18876;DHT22;9570;50.854;13.778;2023-02-26T14:13:20;1.20;99.90
18876;DHT22;9570;50.854;13.778;2023-02-26T14:16:13;1.20;99.90
18876;DHT22;9570;50.854;13.778;2023-02-26T14:18:48;1.40;99.90
18876;DHT22;9570;50.854;13.778;2023-02-26T14:23:54;1.40;99.90
18876;DHT22;9570;50.854;13.778;2023-02-26T14:26:22;1.40;99.90
18876;DHT22;9570;50.854;13.778;2023-02-26T14:34:23;1.10;99.90
18876;DHT22;9570;50.854;13.778;2023-02-26T14:36:57;0.70;99.90
18876;DHT22;9570;50.854;13.778;2023-02-26T14:39:42;0.30;99.90
18876;DHT22;9570;50.854;13.778;2023-02-26T14:44:48;0.00;99.90
18876;DHT22;9570;50.854;13.778;2023-02-26T14:47:15;-0.10;99.90
18876;DHT22;9570;50.854;13.778;2023-02-26T14:49:44;0.00;99.90
18876;DHT22;9570;50.854;13.778;2023-02-26T14:52:41;0.20;99.90
18876;DHT22;9570;50.854;13.778;2023-02-26T14:55:30;0.50;99.90
18876;DHT22;9570;50.854;13.778;2023-02-26T15:01:19;0.40;99.90
18876;DHT22;9570;50.854;13.778;2023-02-26T15:07:01;0.70;99.90
18876;DHT22;9570;50.854;13.778;2023-02-26T15:12:24;1.00;99.90
18876;DHT22;9570;50.854;13.778;2023-02-26T15:25:45;1.30;99.90
18876;DHT22;9570;50.854;13.778;2023-02-26T15:28:19;1.00;99.90
18876;DHT22;9570;50.854;13.778;2023-02-26T15:30:47;1.10;99.90
18876;DHT22;9570;50.854;13.778;2023-02-26T15:33:14;1.30;99.90
18876;DHT22;9570;50.854;13.778;2023-02-26T15:35:42;1.20;99.90
18876;DHT22;9570;50.854;13.778;2023-02-26T15:38:09;1.20;99.90
18876;DHT22;9570;50.854;13.778;2023-02-26T15:40:35;1.10;99.90
18876;DHT22;9570;50.854;13.778;2023-02-26T15:43:02;0.90;99.90
18876;DHT22;9570;50.854;13.778;2023-02-26T15:45:37;0.70;99.90
18876;DHT22;9570;50.854;13.778;2023-02-26T15:48:07;0.80;99.90
18876;DHT22;9570;50.854;13.778;2023-02-26T15:50:36;0.90;99.90
18876;DHT22;9570;50.854;13.778;2023-02-26T15:53:04;1.00;99.90
18876;DHT22;9570;50.854;13.778;2023-02-26T15:55:34;1.10;99.90
18876;DHT22;9570;50.854;13.778;2023-02-26T15:58:00;0.90;99.90
18876;DHT22;9570;50.854;13.778;2023-02-26T16:00:26;0.80;99.90
18876;DHT22;9570;50.854;13.778;2023-02-26T16:02:56;0.80;99.90
18876;DHT22;9570;50.854;13.778;2023-02-26T16:05:25;0.80;99.90
18876;DHT22;9570;50.854;13.778;2023-02-26T16:07:51;0.60;99.90
18876;DHT22;9570;50.854;13.778;2023-02-26T16:10:37;0.70;99.90
18876;DHT22;9570;50.854;13.778;2023-02-26T16:13:06;0.80;99.90
18876;DHT22;9570;50.854;13.778;2023-02-26T16:15:37;0.70;99.90
18876;DHT22;9570;50.854;13.778;2023-02-26T16:18:06;0.70;99.90
18876;DHT22;9570;50.854;13.778;2023-02-26T16:20:43;0.70;99.90
18876;DHT22;9570;50.854;13.778;2023-02-26T16:23:40;0.60;99.90
18876;DHT22;9570;50.854;13.778;2023-02-26T16:26:13;0.60;99.90
18876;DHT22;9570;50.854;13.778;2023-02-26T16:28:42;0.60;99.90
18876;DHT22;9570;50.854;13.778;2023-02-26T16:31:17;0.60;99.90
18876;DHT22;9570;50.854;13.778;2023-02-26T16:33:58;0.70;99.90
18876;DHT22;9570;50.854;13.778;2023-02-26T16:36:29;0.70;99.90
18876;DHT22;9570;50.854;13.778;2023-02-26T16:38:58;0.80;99.90
18876;DHT22;9570;50.854;13.778;2023-02-26T16:41:28;0.80;99.90
18876;DHT22;9570;50.854;13.778;2023-02-26T16:43:56;0.80;99.90
18876;DHT22;9570;50.854;13.778;2023-02-26T16:46:33;0.80;99.90
18876;DHT22;9570;50.854;13.778;2023-02-26T16:49:23;0.80;99.90
18876;DHT22;9570;50.854;13.778;2023-02-26T16:51:50;0.70;99.90
18876;DHT22;9570;50.854;13.778;2023-02-26T16:54:22;0.70;99.90
18876;DHT22;9570;50.854;13.778;2023-02-26T16:56:58;0.70;99.90
18876;DHT22;9570;50.854;13.778;2023-02-26T16:59:26;0.70;99.90
18876;DHT22;9570;50.854;13.778;2023-02-26T17:02:12;0.70;99.90
18876;DHT22;9570;50.854;13.778;2023-02-26T17:04:38;0.80;99.90
18876;DHT22;9570;50.854;13.778;2023-02-26T17:07:13;0.80;99.90
18876;DHT22;9570;50.854;13.778;2023-02-26T17:09:43;0.80;99.90
18876;DHT22;9570;50.854;13.778;2023-02-26T17:14:44;0.80;99.90
18876;DHT22;9570;50.854;13.778;2023-02-26T17:17:10;0.70;99.90
18876;DHT22;9570;50.854;13.778;2023-02-26T17:19:36;0.70;99.90
18876;DHT22;9570;50.854;13.778;2023-02-26T17:22:02;0.70;99.90
18876;DHT22;9570;50.854;13.778;2023-02-26T17:24:34;0.70;99.90
18876;DHT22;9570;50.854;13.778;2023-02-26T17:27:03;0.70;99.90
18876;DHT22;9570;50.854;13.778;2023-02-26T17:29:42;0.80;99.90
18876;DHT22;9570;50.854;13.778;2023-02-26T17:32:20;0.80;99.90
18876;DHT22;9570;50.854;13.778;2023-02-26T17:34:47;0.80;99.90
18876;DHT22;9570;50.854;13.778;2023-02-26T17:37:13;0.80;99.90
18876;DHT22;9570;50.854;13.778;2023-02-26T17:39:39;0.80;99.90
18876;DHT22;9570;50.854;13.778;2023-02-26T17:42:13;0.80;99.90
18876;DHT22;9570;50.854;13.778;2023-02-26T17:44:38;0.90;99.90
18876;DHT22;9570;50.854;13.778;2023-02-26T17:47:04;0.90;99.90
18876;DHT22;9570;50.854;13.778;2023-02-26T17:49:30;0.90;99.90
18876;DHT22;9570;50.854;13.778;2023-02-26T17:51:55;0.90;99.90